Lushton, Nebraska
Current Conditions -  °F | °C
As of 7:55 PM on Friday 24 Oct 2014 (Local Time) from KJYR Reporting Station
Clear Clear  
Wind Chill: 59°   Ceiling: Unl
Heat Index: 59°   Visibility: 7mi
Dew Point: 52°   Wind: 6mph
Humidity: 77%   Direction: 10°N
Pressure: 29.99"   Gusts: NA
Location:  40.7857°N, 97.7689°W
Report Text: KJYR 250055Z AUTO 01005KT 7SM CLR 15/11 A2999 RMK AO2
Loading
Personal Weather Stations






























Interactive Weather Map
Tropical Storm Tracking
New forecast layout! Learn more

10-Day Weather Forecast

Advertisements
Track Severe Weather on mobile